sensor_id;sensor_type;location;lat;lon;timestamp;temperature;humidity
43665;DHT22;29263;48.172;11.484;2023-03-20T00:00:29;9.10;99.90
43665;DHT22;29263;48.172;11.484;2023-03-20T00:02:55;9.20;99.90
43665;DHT22;29263;48.172;11.484;2023-03-20T00:05:23;9.20;99.90
43665;DHT22;29263;48.172;11.484;2023-03-20T00:07:49;9.20;99.90
43665;DHT22;29263;48.172;11.484;2023-03-20T00:10:17;9.10;99.90
43665;DHT22;29263;48.172;11.484;2023-03-20T00:12:43;9.10;99.90
43665;DHT22;29263;48.172;11.484;2023-03-20T00:17:43;9.00;99.90
43665;DHT22;29263;48.172;11.484;2023-03-20T00:20:14;9.00;99.90
43665;DHT22;29263;48.172;11.484;2023-03-20T00:22:40;9.00;99.90
43665;DHT22;29263;48.172;11.484;2023-03-20T00:25:06;8.90;99.90
43665;DHT22;29263;48.172;11.484;2023-03-20T00:27:31;8.90;99.90
43665;DHT22;29263;48.172;11.484;2023-03-20T00:29:57;8.90;99.90
43665;DHT22;29263;48.172;11.484;2023-03-20T00:32:23;8.90;99.90
43665;DHT22;29263;48.172;11.484;2023-03-20T00:34:49;8.90;99.90
43665;DHT22;29263;48.172;11.484;2023-03-20T00:37:14;8.90;99.90
43665;DHT22;29263;48.172;11.484;2023-03-20T00:39:40;8.90;99.90
43665;DHT22;29263;48.172;11.484;2023-03-20T00:42:08;9.00;99.90
43665;DHT22;29263;48.172;11.484;2023-03-20T00:44:42;9.00;99.90
43665;DHT22;29263;48.172;11.484;2023-03-20T00:47:21;9.00;99.90
43665;DHT22;29263;48.172;11.484;2023-03-20T00:49:49;9.00;99.90
43665;DHT22;29263;48.172;11.484;2023-03-20T00:52:17;8.90;99.90
43665;DHT22;29263;48.172;11.484;2023-03-20T00:54:43;8.90;99.90
43665;DHT22;29263;48.172;11.484;2023-03-20T00:57:21;8.80;99.90
43665;DHT22;29263;48.172;11.484;2023-03-20T01:00:00;8.80;99.90
43665;DHT22;29263;48.172;11.484;2023-03-20T01:02:31;8.80;99.90
43665;DHT22;29263;48.172;11.484;2023-03-20T01:04:57;8.80;99.90
43665;DHT22;29263;48.172;11.484;2023-03-20T01:07:22;8.80;99.90
43665;DHT22;29263;48.172;11.484;2023-03-20T01:09:48;8.80;99.90
43665;DHT22;29263;48.172;11.484;2023-03-20T01:12:14;8.80;99.90
43665;DHT22;29263;48.172;11.484;2023-03-20T01:14:41;8.80;99.90
43665;DHT22;29263;48.172;11.484;2023-03-20T01:17:18;8.80;99.90
43665;DHT22;29263;48.172;11.484;2023-03-20T01:19:44;8.80;99.90
43665;DHT22;29263;48.172;11.484;2023-03-20T01:22:09;8.80;99.90
43665;DHT22;29263;48.172;11.484;2023-03-20T01:24:35;8.80;99.90
43665;DHT22;29263;48.172;11.484;2023-03-20T01:27:01;8.70;99.90
43665;DHT22;29263;48.172;11.484;2023-03-20T01:29:29;8.70;99.90
43665;DHT22;29263;48.172;11.484;2023-03-20T01:31:56;8.70;99.90
43665;DHT22;29263;48.172;11.484;2023-03-20T01:34:22;8.70;99.90
43665;DHT22;29263;48.172;11.484;2023-03-20T01:36:50;8.70;99.90
43665;DHT22;29263;48.172;11.484;2023-03-20T01:39:16;8.70;99.90
43665;DHT22;29263;48.172;11.484;2023-03-20T01:41:43;8.70;99.90
43665;DHT22;29263;48.172;11.484;2023-03-20T01:44:21;8.70;99.90
43665;DHT22;29263;48.172;11.484;2023-03-20T01:46:48;8.70;99.90
43665;DHT22;29263;48.172;11.484;2023-03-20T01:51:46;8.70;99.90
43665;DHT22;29263;48.172;11.484;2023-03-20T01:54:30;8.70;99.90
43665;DHT22;29263;48.172;11.484;2023-03-20T01:57:10;8.70;99.90
43665;DHT22;29263;48.172;11.484;2023-03-20T01:59:51;8.70;99.90
43665;DHT22;29263;48.172;11.484;2023-03-20T02:02:24;8.70;99.90
43665;DHT22;29263;48.172;11.484;2023-03-20T02:04:54;8.70;99.90
43665;DHT22;29263;48.172;11.484;2023-03-20T02:07:22;8.60;99.90
43665;DHT22;29263;48.172;11.484;2023-03-20T02:09:48;8.70;99.90
43665;DHT22;29263;48.172;11.484;2023-03-20T02:12:16;8.70;99.90
43665;DHT22;29263;48.172;11.484;2023-03-20T02:14:42;8.70;99.90
43665;DHT22;29263;48.172;11.484;2023-03-20T02:17:09;8.70;99.90
43665;DHT22;29263;48.172;11.484;2023-03-20T02:31:19;8.70;99.90
43665;DHT22;29263;48.172;11.484;2023-03-20T02:40:04;8.60;99.90
43665;DHT22;29263;48.172;11.484;2023-03-20T02:42:44;8.60;99.90
43665;DHT22;29263;48.172;11.484;2023-03-20T02:45:16;8.60;99.90
43665;DHT22;29263;48.172;11.484;2023-03-20T02:47:54;8.50;99.90
43665;DHT22;29263;48.172;11.484;2023-03-20T02:50:34;8.50;99.90
43665;DHT22;29263;48.172;11.484;2023-03-20T02:56:06;8.60;99.90
43665;DHT22;29263;48.172;11.484;2023-03-20T02:58:37;8.60;99.90
43665;DHT22;29263;48.172;11.484;2023-03-20T03:01:14;8.60;99.90
43665;DHT22;29263;48.172;11.484;2023-03-20T03:06:29;8.60;99.90
43665;DHT22;29263;48.172;11.484;2023-03-20T03:11:35;8.60;99.90
43665;DHT22;29263;48.172;11.484;2023-03-20T03:14:03;8.60;99.90
43665;DHT22;29263;48.172;11.484;2023-03-20T03:16:33;8.70;99.90
43665;DHT22;29263;48.172;11.484;2023-03-20T03:19:06;8.70;99.90
43665;DHT22;29263;48.172;11.484;2023-03-20T03:21:35;8.60;99.90
43665;DHT22;29263;48.172;11.484;2023-03-20T03:24:02;8.60;99.90
43665;DHT22;29263;48.172;11.484;2023-03-20T03:26:32;8.60;99.90
43665;DHT22;29263;48.172;11.484;2023-03-20T03:29:02;8.60;99.90
43665;DHT22;29263;48.172;11.484;2023-03-20T03:31:30;8.60;99.90
43665;DHT22;29263;48.172;11.484;2023-03-20T03:33:58;8.50;99.90
43665;DHT22;29263;48.172;11.484;2023-03-20T03:36:41;8.50;99.90
43665;DHT22;29263;48.172;11.484;2023-03-20T03:44:58;8.50;99.90
43665;DHT22;29263;48.172;11.484;2023-03-20T03:50:01;8.50;99.90
43665;DHT22;29263;48.172;11.484;2023-03-20T03:52:30;8.50;99.90
43665;DHT22;29263;48.172;11.484;2023-03-20T03:55:09;8.50;99.90
43665;DHT22;29263;48.172;11.484;2023-03-20T03:57:45;8.60;99.90
43665;DHT22;29263;48.172;11.484;2023-03-20T04:00:14;8.50;99.90
43665;DHT22;29263;48.172;11.484;2023-03-20T04:02:43;8.50;99.90
43665;DHT22;29263;48.172;11.484;2023-03-20T04:05:10;8.50;99.90
43665;DHT22;29263;48.172;11.484;2023-03-20T04:07:38;8.60;99.90
43665;DHT22;29263;48.172;11.484;2023-03-20T04:10:04;8.60;99.90
43665;DHT22;29263;48.172;11.484;2023-03-20T04:12:38;8.60;99.90
43665;DHT22;29263;48.172;11.484;2023-03-20T04:15:04;8.60;99.90
43665;DHT22;29263;48.172;11.484;2023-03-20T04:17:30;8.60;99.90
43665;DHT22;29263;48.172;11.484;2023-03-20T04:19:56;8.60;99.90
43665;DHT22;29263;48.172;11.484;2023-03-20T04:22:22;8.60;99.90
43665;DHT22;29263;48.172;11.484;2023-03-20T04:24:47;8.60;99.90
43665;DHT22;29263;48.172;11.484;2023-03-20T04:27:13;8.60;99.90
43665;DHT22;29263;48.172;11.484;2023-03-20T04:29:39;8.60;99.90
43665;DHT22;29263;48.172;11.484;2023-03-20T04:32:05;8.60;99.90
43665;DHT22;29263;48.172;11.484;2023-03-20T04:34:30;8.70;99.90
43665;DHT22;29263;48.172;11.484;2023-03-20T04:36:56;8.70;99.90
43665;DHT22;29263;48.172;11.484;2023-03-20T04:39:22;8.70;99.90
43665;DHT22;29263;48.172;11.484;2023-03-20T04:41:47;8.80;99.90
43665;DHT22;29263;48.172;11.484;2023-03-20T04:44:13;8.70;99.90
43665;DHT22;29263;48.172;11.484;2023-03-20T04:46:38;8.70;99.90
43665;DHT22;29263;48.172;11.484;2023-03-20T04:49:04;8.70;99.90
43665;DHT22;29263;48.172;11.484;2023-03-20T04:51:30;8.70;99.90
43665;DHT22;29263;48.172;11.484;2023-03-20T04:53:56;8.70;99.90
43665;DHT22;29263;48.172;11.484;2023-03-20T04:56:21;8.70;99.90
43665;DHT22;29263;48.172;11.484;2023-03-20T04:58:47;8.70;99.90
43665;DHT22;29263;48.172;11.484;2023-03-20T05:01:12;8.70;99.90
43665;DHT22;29263;48.172;11.484;2023-03-20T05:03:38;8.70;99.90
43665;DHT22;29263;48.172;11.484;2023-03-20T05:06:04;8.70;99.90
43665;DHT22;29263;48.172;11.484;2023-03-20T05:08:30;8.60;99.90
43665;DHT22;29263;48.172;11.484;2023-03-20T05:10:55;8.60;99.90
43665;DHT22;29263;48.172;11.484;2023-03-20T05:13:21;8.60;99.90
43665;DHT22;29263;48.172;11.484;2023-03-20T05:15:47;8.60;99.90
43665;DHT22;29263;48.172;11.484;2023-03-20T05:18:13;8.60;99.90
43665;DHT22;29263;48.172;11.484;2023-03-20T05:20:38;8.50;99.90
43665;DHT22;29263;48.172;11.484;2023-03-20T05:23:04;8.60;99.90
43665;DHT22;29263;48.172;11.484;2023-03-20T05:25:33;8.50;99.90
43665;DHT22;29263;48.172;11.484;2023-03-20T05:27:58;8.50;99.90
43665;DHT22;29263;48.172;11.484;2023-03-20T05:30:24;8.50;99.90
43665;DHT22;29263;48.172;11.484;2023-03-20T05:32:50;8.50;99.90
43665;DHT22;29263;48.172;11.484;2023-03-20T05:35:17;8.40;99.90
43665;DHT22;29263;48.172;11.484;2023-03-20T05:37:43;8.40;99.90
43665;DHT22;29263;48.172;11.484;2023-03-20T05:40:12;8.40;99.90
43665;DHT22;29263;48.172;11.484;2023-03-20T05:42:38;8.40;99.90
43665;DHT22;29263;48.172;11.484;2023-03-20T05:45:05;8.40;99.90
43665;DHT22;29263;48.172;11.484;2023-03-20T05:47:30;8.40;99.90
43665;DHT22;29263;48.172;11.484;2023-03-20T05:49:56;8.30;99.90
43665;DHT22;29263;48.172;11.484;2023-03-20T05:52:22;8.30;99.90
43665;DHT22;29263;48.172;11.484;2023-03-20T05:54:48;8.20;99.90
43665;DHT22;29263;48.172;11.484;2023-03-20T05:57:14;8.20;99.90
43665;DHT22;29263;48.172;11.484;2023-03-20T05:59:41;8.20;99.90
43665;DHT22;29263;48.172;11.484;2023-03-20T06:02:06;8.20;99.90
43665;DHT22;29263;48.172;11.484;2023-03-20T06:04:32;8.20;99.90
43665;DHT22;29263;48.172;11.484;2023-03-20T06:06:59;8.20;99.90
43665;DHT22;29263;48.172;11.484;2023-03-20T06:09:25;8.20;99.90
43665;DHT22;29263;48.172;11.484;2023-03-20T06:11:50;8.20;99.90
43665;DHT22;29263;48.172;11.484;2023-03-20T06:14:16;8.20;99.90
43665;DHT22;29263;48.172;11.484;2023-03-20T06:16:42;8.20;99.90
43665;DHT22;29263;48.172;11.484;2023-03-20T06:19:07;8.20;99.90
43665;DHT22;29263;48.172;11.484;2023-03-20T06:21:33;8.20;99.90
43665;DHT22;29263;48.172;11.484;2023-03-20T06:23:58;8.20;99.90
43665;DHT22;29263;48.172;11.484;2023-03-20T06:26:24;8.20;99.90
43665;DHT22;29263;48.172;11.484;2023-03-20T06:28:50;8.10;99.90
43665;DHT22;29263;48.172;11.484;2023-03-20T06:31:16;8.20;99.90
43665;DHT22;29263;48.172;11.484;2023-03-20T06:33:42;8.20;99.90
43665;DHT22;29263;48.172;11.484;2023-03-20T06:36:08;8.20;99.90
43665;DHT22;29263;48.172;11.484;2023-03-20T06:38:34;8.20;99.90
43665;DHT22;29263;48.172;11.484;2023-03-20T06:41:00;8.20;99.90
43665;DHT22;29263;48.172;11.484;2023-03-20T06:43:25;8.30;99.90
43665;DHT22;29263;48.172;11.484;2023-03-20T06:45:51;8.30;99.90
43665;DHT22;29263;48.172;11.484;2023-03-20T06:48:17;8.30;99.90
43665;DHT22;29263;48.172;11.484;2023-03-20T06:50:47;8.40;99.90
43665;DHT22;29263;48.172;11.484;2023-03-20T06:53:13;8.50;99.90
43665;DHT22;29263;48.172;11.484;2023-03-20T06:55:39;8.50;99.90
43665;DHT22;29263;48.172;11.484;2023-03-20T06:58:04;8.50;99.90
43665;DHT22;29263;48.172;11.484;2023-03-20T07:00:30;8.50;99.90
43665;DHT22;29263;48.172;11.484;2023-03-20T07:02:56;8.60;99.90
43665;DHT22;29263;48.172;11.484;2023-03-20T07:05:22;8.60;99.90
43665;DHT22;29263;48.172;11.484;2023-03-20T07:07:48;8.60;99.90
43665;DHT22;29263;48.172;11.484;2023-03-20T07:10:14;8.80;99.90
43665;DHT22;29263;48.172;11.484;2023-03-20T07:12:39;8.80;99.90
43665;DHT22;29263;48.172;11.484;2023-03-20T07:15:05;8.80;99.90
43665;DHT22;29263;48.172;11.484;2023-03-20T07:17:31;8.80;99.90
43665;DHT22;29263;48.172;11.484;2023-03-20T07:19:57;8.80;99.90
43665;DHT22;29263;48.172;11.484;2023-03-20T07:22:28;8.90;99.90
43665;DHT22;29263;48.172;11.484;2023-03-20T07:24:57;8.90;99.90
43665;DHT22;29263;48.172;11.484;2023-03-20T07:27:22;8.90;99.90
43665;DHT22;29263;48.172;11.484;2023-03-20T07:29:48;8.90;99.90
43665;DHT22;29263;48.172;11.484;2023-03-20T07:32:14;8.90;99.90
43665;DHT22;29263;48.172;11.484;2023-03-20T07:34:41;9.00;99.90
43665;DHT22;29263;48.172;11.484;2023-03-20T07:37:06;9.10;99.90
43665;DHT22;29263;48.172;11.484;2023-03-20T07:39:32;9.10;99.90
43665;DHT22;29263;48.172;11.484;2023-03-20T07:41:57;9.20;99.90
43665;DHT22;29263;48.172;11.484;2023-03-20T07:44:23;9.30;99.90
43665;DHT22;29263;48.172;11.484;2023-03-20T07:46:49;9.30;99.90
43665;DHT22;29263;48.172;11.484;2023-03-20T07:49:15;9.40;99.90
43665;DHT22;29263;48.172;11.484;2023-03-20T07:51:45;9.40;99.90
43665;DHT22;29263;48.172;11.484;2023-03-20T07:54:11;9.50;99.90
43665;DHT22;29263;48.172;11.484;2023-03-20T07:56:37;9.50;99.90
43665;DHT22;29263;48.172;11.484;2023-03-20T07:59:03;9.50;99.90
43665;DHT22;29263;48.172;11.484;2023-03-20T08:01:29;9.60;99.90
43665;DHT22;29263;48.172;11.484;2023-03-20T08:03:55;9.80;99.90
43665;DHT22;29263;48.172;11.484;2023-03-20T08:06:21;9.90;99.90
43665;DHT22;29263;48.172;11.484;2023-03-20T08:08:46;10.00;99.90
43665;DHT22;29263;48.172;11.484;2023-03-20T08:11:14;10.00;99.90
43665;DHT22;29263;48.172;11.484;2023-03-20T08:13:39;9.90;99.90
43665;DHT22;29263;48.172;11.484;2023-03-20T08:16:05;10.00;99.90
43665;DHT22;29263;48.172;11.484;2023-03-20T08:18:31;10.00;99.90
43665;DHT22;29263;48.172;11.484;2023-03-20T08:20:56;10.10;99.90
43665;DHT22;29263;48.172;11.484;2023-03-20T08:23:22;10.10;99.90
43665;DHT22;29263;48.172;11.484;2023-03-20T08:25:49;10.10;99.90
43665;DHT22;29263;48.172;11.484;2023-03-20T08:28:15;10.10;99.90
43665;DHT22;29263;48.172;11.484;2023-03-20T08:30:41;10.10;99.90
43665;DHT22;29263;48.172;11.484;2023-03-20T08:33:06;10.10;99.90
43665;DHT22;29263;48.172;11.484;2023-03-20T08:35:32;10.10;99.90
43665;DHT22;29263;48.172;11.484;2023-03-20T08:37:58;10.10;99.90
43665;DHT22;29263;48.172;11.484;2023-03-20T08:40:23;10.00;99.90
43665;DHT22;29263;48.172;11.484;2023-03-20T08:42:49;10.00;99.90
43665;DHT22;29263;48.172;11.484;2023-03-20T08:45:15;10.10;99.90
43665;DHT22;29263;48.172;11.484;2023-03-20T08:47:41;10.20;99.90
43665;DHT22;29263;48.172;11.484;2023-03-20T08:50:07;10.20;99.90
43665;DHT22;29263;48.172;11.484;2023-03-20T08:52:34;10.20;99.90
43665;DHT22;29263;48.172;11.484;2023-03-20T08:54:59;10.30;99.90
43665;DHT22;29263;48.172;11.484;2023-03-20T08:57:25;10.30;99.90
43665;DHT22;29263;48.172;11.484;2023-03-20T08:59:51;10.40;99.90
43665;DHT22;29263;48.172;11.484;2023-03-20T09:02:17;10.40;99.90
43665;DHT22;29263;48.172;11.484;2023-03-20T09:04:45;10.50;99.90
43665;DHT22;29263;48.172;11.484;2023-03-20T09:07:11;10.60;99.90
43665;DHT22;29263;48.172;11.484;2023-03-20T09:09:37;10.50;99.90
43665;DHT22;29263;48.172;11.484;2023-03-20T09:12:02;10.70;99.90
43665;DHT22;29263;48.172;11.484;2023-03-20T09:14:28;10.70;99.90
43665;DHT22;29263;48.172;11.484;2023-03-20T09:16:54;10.80;99.90
43665;DHT22;29263;48.172;11.484;2023-03-20T09:19:19;10.90;99.90
43665;DHT22;29263;48.172;11.484;2023-03-20T09:21:45;11.20;99.90
43665;DHT22;29263;48.172;11.484;2023-03-20T09:24:11;11.50;99.90
43665;DHT22;29263;48.172;11.484;2023-03-20T09:26:37;11.60;99.90
43665;DHT22;29263;48.172;11.484;2023-03-20T09:29:04;11.70;99.90
43665;DHT22;29263;48.172;11.484;2023-03-20T09:31:30;11.60;99.90
43665;DHT22;29263;48.172;11.484;2023-03-20T09:33:55;11.50;99.90
43665;DHT22;29263;48.172;11.484;2023-03-20T09:36:21;11.40;99.90
43665;DHT22;29263;48.172;11.484;2023-03-20T09:38:47;11.50;99.90
43665;DHT22;29263;48.172;11.484;2023-03-20T09:41:18;11.60;99.90
43665;DHT22;29263;48.172;11.484;2023-03-20T09:46:44;11.60;99.90
43665;DHT22;29263;48.172;11.484;2023-03-20T09:49:38;11.70;99.90
43665;DHT22;29263;48.172;11.484;2023-03-20T09:52:26;11.80;99.90
43665;DHT22;29263;48.172;11.484;2023-03-20T09:54:56;11.80;99.90
43665;DHT22;29263;48.172;11.484;2023-03-20T09:57:33;11.80;99.90
43665;DHT22;29263;48.172;11.484;2023-03-20T10:00:19;11.90;99.90
43665;DHT22;29263;48.172;11.484;2023-03-20T10:03:00;11.90;99.90
43665;DHT22;29263;48.172;11.484;2023-03-20T10:08:00;11.90;99.90
43665;DHT22;29263;48.172;11.484;2023-03-20T10:18:39;12.10;99.90
43665;DHT22;29263;48.172;11.484;2023-03-20T10:21:23;12.20;99.90
43665;DHT22;29263;48.172;11.484;2023-03-20T10:24:01;11.90;98.60
43665;DHT22;29263;48.172;11.484;2023-03-20T10:26:28;11.90;99.60
43665;DHT22;29263;48.172;11.484;2023-03-20T10:32:11;11.80;99.40
43665;DHT22;29263;48.172;11.484;2023-03-20T10:34:56;11.90;99.90
43665;DHT22;29263;48.172;11.484;2023-03-20T10:40:33;12.10;95.00
43665;DHT22;29263;48.172;11.484;2023-03-20T10:43:14;12.10;92.80
43665;DHT22;29263;48.172;11.484;2023-03-20T10:45:52;12.30;91.60
43665;DHT22;29263;48.172;11.484;2023-03-20T10:50:55;12.60;86.10
43665;DHT22;29263;48.172;11.484;2023-03-20T10:53:31;12.80;82.40
43665;DHT22;29263;48.172;11.484;2023-03-20T10:56:04;12.80;88.60
43665;DHT22;29263;48.172;11.484;2023-03-20T10:58:34;12.80;90.80
43665;DHT22;29263;48.172;11.484;2023-03-20T11:01:01;12.80;91.20
43665;DHT22;29263;48.172;11.484;2023-03-20T11:03:29;12.80;82.50
43665;DHT22;29263;48.172;11.484;2023-03-20T11:06:00;12.80;79.90
43665;DHT22;29263;48.172;11.484;2023-03-20T11:08:33;12.70;85.60
43665;DHT22;29263;48.172;11.484;2023-03-20T11:11:02;12.80;89.30
43665;DHT22;29263;48.172;11.484;2023-03-20T11:15:57;13.10;78.80
43665;DHT22;29263;48.172;11.484;2023-03-20T11:18:34;13.10;74.30
43665;DHT22;29263;48.172;11.484;2023-03-20T11:21:01;13.10;76.20
43665;DHT22;29263;48.172;11.484;2023-03-20T11:23:31;13.00;78.10
43665;DHT22;29263;48.172;11.484;2023-03-20T11:25:58;13.00;81.50
43665;DHT22;29263;48.172;11.484;2023-03-20T11:28:40;13.00;78.90
43665;DHT22;29263;48.172;11.484;2023-03-20T11:31:19;13.10;77.70
43665;DHT22;29263;48.172;11.484;2023-03-20T11:33:51;13.10;77.70
43665;DHT22;29263;48.172;11.484;2023-03-20T11:36:27;13.20;73.90
43665;DHT22;29263;48.172;11.484;2023-03-20T11:39:05;13.20;76.10
43665;DHT22;29263;48.172;11.484;2023-03-20T11:41:33;13.40;74.90
43665;DHT22;29263;48.172;11.484;2023-03-20T11:43:59;13.50;75.30
43665;DHT22;29263;48.172;11.484;2023-03-20T11:46:25;13.40;75.40
43665;DHT22;29263;48.172;11.484;2023-03-20T11:49:18;13.30;73.90
43665;DHT22;29263;48.172;11.484;2023-03-20T11:51:45;13.10;76.20
43665;DHT22;29263;48.172;11.484;2023-03-20T11:54:16;13.00;77.40
43665;DHT22;29263;48.172;11.484;2023-03-20T11:57:25;12.90;78.00
43665;DHT22;29263;48.172;11.484;2023-03-20T11:59:54;12.80;76.40
43665;DHT22;29263;48.172;11.484;2023-03-20T12:02:22;12.80;78.80
43665;DHT22;29263;48.172;11.484;2023-03-20T12:04:49;12.90;76.90
43665;DHT22;29263;48.172;11.484;2023-03-20T12:07:31;12.90;74.10
43665;DHT22;29263;48.172;11.484;2023-03-20T12:10:16;12.70;72.60
43665;DHT22;29263;48.172;11.484;2023-03-20T12:12:52;12.70;71.90
43665;DHT22;29263;48.172;11.484;2023-03-20T12:15:36;12.70;71.10
43665;DHT22;29263;48.172;11.484;2023-03-20T12:18:26;12.70;73.00
43665;DHT22;29263;48.172;11.484;2023-03-20T12:21:10;12.70;72.70
43665;DHT22;29263;48.172;11.484;2023-03-20T12:24:00;12.70;73.90
43665;DHT22;29263;48.172;11.484;2023-03-20T12:26:34;12.80;75.40
43665;DHT22;29263;48.172;11.484;2023-03-20T12:31:48;12.80;79.40
43665;DHT22;29263;48.172;11.484;2023-03-20T12:34:31;12.80;80.90
43665;DHT22;29263;48.172;11.484;2023-03-20T12:36:58;12.70;81.90
43665;DHT22;29263;48.172;11.484;2023-03-20T12:39:33;12.60;79.80
43665;DHT22;29263;48.172;11.484;2023-03-20T12:50:32;12.80;74.40
43665;DHT22;29263;48.172;11.484;2023-03-20T12:53:36;12.80;74.20
43665;DHT22;29263;48.172;11.484;2023-03-20T12:59:10;12.80;72.80
43665;DHT22;29263;48.172;11.484;2023-03-20T13:01:47;13.00;72.90
43665;DHT22;29263;48.172;11.484;2023-03-20T13:06:59;13.00;73.30
43665;DHT22;29263;48.172;11.484;2023-03-20T13:09:58;13.00;76.40
43665;DHT22;29263;48.172;11.484;2023-03-20T13:12:36;13.10;74.50
43665;DHT22;29263;48.172;11.484;2023-03-20T13:15:34;13.10;73.30
43665;DHT22;29263;48.172;11.484;2023-03-20T13:18:04;13.10;77.50
43665;DHT22;29263;48.172;11.484;2023-03-20T13:20:51;13.10;75.60
43665;DHT22;29263;48.172;11.484;2023-03-20T13:26:35;13.20;76.90
43665;DHT22;29263;48.172;11.484;2023-03-20T13:29:29;13.30;73.20
43665;DHT22;29263;48.172;11.484;2023-03-20T13:37:55;13.80;71.60
43665;DHT22;29263;48.172;11.484;2023-03-20T13:40:34;14.10;68.40
43665;DHT22;29263;48.172;11.484;2023-03-20T13:45:42;14.90;61.00
43665;DHT22;29263;48.172;11.484;2023-03-20T13:56:17;15.90;58.50
43665;DHT22;29263;48.172;11.484;2023-03-20T14:08:51;16.30;55.40
43665;DHT22;29263;48.172;11.484;2023-03-20T14:11:34;15.90;55.40
43665;DHT22;29263;48.172;11.484;2023-03-20T14:14:19;15.40;56.60
43665;DHT22;29263;48.172;11.484;2023-03-20T14:16:59;15.00;58.20
43665;DHT22;29263;48.172;11.484;2023-03-20T14:19:25;14.70;60.00
43665;DHT22;29263;48.172;11.484;2023-03-20T14:21:55;14.50;60.90
43665;DHT22;29263;48.172;11.484;2023-03-20T14:24:23;14.30;61.60
43665;DHT22;29263;48.172;11.484;2023-03-20T14:26:53;14.20;62.20
43665;DHT22;29263;48.172;11.484;2023-03-20T14:35:19;14.10;62.70
43665;DHT22;29263;48.172;11.484;2023-03-20T14:38:11;14.00;62.70
43665;DHT22;29263;48.172;11.484;2023-03-20T14:41:01;13.90;62.80
43665;DHT22;29263;48.172;11.484;2023-03-20T14:46:33;14.00;63.50
43665;DHT22;29263;48.172;11.484;2023-03-20T14:51:47;14.20;62.70
43665;DHT22;29263;48.172;11.484;2023-03-20T14:54:23;14.00;62.10
43665;DHT22;29263;48.172;11.484;2023-03-20T14:56:49;13.90;62.50
43665;DHT22;29263;48.172;11.484;2023-03-20T14:59:20;14.30;61.40
43665;DHT22;29263;48.172;11.484;2023-03-20T15:01:58;15.00;59.10
43665;DHT22;29263;48.172;11.484;2023-03-20T15:04:41;15.10;58.40
43665;DHT22;29263;48.172;11.484;2023-03-20T15:07:16;14.90;59.80
43665;DHT22;29263;48.172;11.484;2023-03-20T15:09:44;15.00;58.70
43665;DHT22;29263;48.172;11.484;2023-03-20T15:12:15;15.00;59.30
43665;DHT22;29263;48.172;11.484;2023-03-20T15:14:50;15.10;60.00
43665;DHT22;29263;48.172;11.484;2023-03-20T15:23:47;16.20;54.40
43665;DHT22;29263;48.172;11.484;2023-03-20T15:39:49;16.20;53.50
43665;DHT22;29263;48.172;11.484;2023-03-20T15:42:19;15.80;54.30
43665;DHT22;29263;48.172;11.484;2023-03-20T15:44:46;15.30;55.20
43665;DHT22;29263;48.172;11.484;2023-03-20T15:47:24;14.80;56.30
43665;DHT22;29263;48.172;11.484;2023-03-20T15:49:55;14.80;56.80
43665;DHT22;29263;48.172;11.484;2023-03-20T15:52:45;15.50;56.50
43665;DHT22;29263;48.172;11.484;2023-03-20T15:55:33;16.00;54.70
43665;DHT22;29263;48.172;11.484;2023-03-20T15:58:01;16.70;53.30
43665;DHT22;29263;48.172;11.484;2023-03-20T16:00:32;17.10;51.80
43665;DHT22;29263;48.172;11.484;2023-03-20T16:03:00;17.00;51.10
43665;DHT22;29263;48.172;11.484;2023-03-20T16:12:02;15.80;54.10
43665;DHT22;29263;48.172;11.484;2023-03-20T16:14:30;15.30;56.10
43665;DHT22;29263;48.172;11.484;2023-03-20T16:16:58;14.80;57.00
43665;DHT22;29263;48.172;11.484;2023-03-20T16:19:26;14.60;58.00
43665;DHT22;29263;48.172;11.484;2023-03-20T16:21:58;14.40;59.20
43665;DHT22;29263;48.172;11.484;2023-03-20T16:24:38;14.30;59.60
43665;DHT22;29263;48.172;11.484;2023-03-20T16:27:07;14.10;60.80
43665;DHT22;29263;48.172;11.484;2023-03-20T16:29:42;14.00;60.70
43665;DHT22;29263;48.172;11.484;2023-03-20T16:32:35;13.90;61.80
43665;DHT22;29263;48.172;11.484;2023-03-20T16:35:05;13.80;60.70
43665;DHT22;29263;48.172;11.484;2023-03-20T16:37:40;13.70;61.80
43665;DHT22;29263;48.172;11.484;2023-03-20T16:40:18;13.70;63.90
43665;DHT22;29263;48.172;11.484;2023-03-20T16:42:46;13.60;62.60
43665;DHT22;29263;48.172;11.484;2023-03-20T16:45:33;13.50;63.80
43665;DHT22;29263;48.172;11.484;2023-03-20T16:48:21;13.40;63.80
43665;DHT22;29263;48.172;11.484;2023-03-20T16:50:55;13.30;64.10
43665;DHT22;29263;48.172;11.484;2023-03-20T16:53:21;13.20;64.80
43665;DHT22;29263;48.172;11.484;2023-03-20T16:55:50;13.10;66.80
43665;DHT22;29263;48.172;11.484;2023-03-20T16:58:22;13.00;67.10
43665;DHT22;29263;48.172;11.484;2023-03-20T17:01:00;12.90;67.10
43665;DHT22;29263;48.172;11.484;2023-03-20T17:03:30;12.90;67.70
43665;DHT22;29263;48.172;11.484;2023-03-20T17:06:35;12.70;68.20
43665;DHT22;29263;48.172;11.484;2023-03-20T17:09:30;12.60;70.50
43665;DHT22;29263;48.172;11.484;2023-03-20T17:12:16;12.50;70.30
43665;DHT22;29263;48.172;11.484;2023-03-20T17:14:42;12.50;71.80
43665;DHT22;29263;48.172;11.484;2023-03-20T17:17:16;12.40;73.70
43665;DHT22;29263;48.172;11.484;2023-03-20T17:19:42;12.30;75.80
43665;DHT22;29263;48.172;11.484;2023-03-20T17:22:14;12.10;78.20
43665;DHT22;29263;48.172;11.484;2023-03-20T17:24:40;12.00;81.10
43665;DHT22;29263;48.172;11.484;2023-03-20T17:27:09;11.80;81.10
43665;DHT22;29263;48.172;11.484;2023-03-20T17:29:36;11.70;86.20
43665;DHT22;29263;48.172;11.484;2023-03-20T17:32:04;11.60;87.60
43665;DHT22;29263;48.172;11.484;2023-03-20T17:34:33;11.50;86.20
43665;DHT22;29263;48.172;11.484;2023-03-20T17:36:58;11.50;91.50
43665;DHT22;29263;48.172;11.484;2023-03-20T17:39:27;11.30;94.20
43665;DHT22;29263;48.172;11.484;2023-03-20T17:41:54;11.20;97.00
43665;DHT22;29263;48.172;11.484;2023-03-20T17:44:20;11.10;98.70
43665;DHT22;29263;48.172;11.484;2023-03-20T17:46:46;11.00;99.90
43665;DHT22;29263;48.172;11.484;2023-03-20T17:49:13;10.80;99.90
43665;DHT22;29263;48.172;11.484;2023-03-20T17:51:40;10.80;98.60
43665;DHT22;29263;48.172;11.484;2023-03-20T17:54:06;10.80;99.90
43665;DHT22;29263;48.172;11.484;2023-03-20T17:56:32;10.70;99.90
43665;DHT22;29263;48.172;11.484;2023-03-20T17:59:01;10.60;99.90
43665;DHT22;29263;48.172;11.484;2023-03-20T18:01:27;10.50;99.90
43665;DHT22;29263;48.172;11.484;2023-03-20T18:03:53;10.40;99.90
43665;DHT22;29263;48.172;11.484;2023-03-20T18:08:48;10.20;99.90
43665;DHT22;29263;48.172;11.484;2023-03-20T18:11:13;10.10;99.90
43665;DHT22;29263;48.172;11.484;2023-03-20T18:13:39;10.00;99.90